sensor_id;sensor_type;location;lat;lon;timestamp;pressure;altitude;pressure_sealevel;temperature;humidity
46303;BME280;32029;51.358;5.628;2023-08-01T00:01:16;99668.56;;;19.91;100.00
46303;BME280;32029;51.358;5.628;2023-08-01T00:03:43;99610.03;;;19.55;100.00
46303;BME280;32029;51.358;5.628;2023-08-01T00:06:10;99636.53;;;19.63;100.00
46303;BME280;32029;51.358;5.628;2023-08-01T00:08:37;99655.44;;;19.76;100.00
46303;BME280;32029;51.358;5.628;2023-08-01T00:11:03;99632.00;;;19.56;100.00
46303;BME280;32029;51.358;5.628;2023-08-01T00:13:30;99634.81;;;19.62;100.00
46303;BME280;32029;51.358;5.628;2023-08-01T00:15:57;99624.22;;;19.43;100.00
46303;BME280;32029;51.358;5.628;2023-08-01T00:18:23;99578.25;;;19.20;100.00
46303;BME280;32029;51.358;5.628;2023-08-01T00:20:52;99629.78;;;19.48;100.00
46303;BME280;32029;51.358;5.628;2023-08-01T00:23:20;99603.28;;;19.30;100.00
46303;BME280;32029;51.358;5.628;2023-08-01T00:25:46;99646.75;;;19.47;100.00
46303;BME280;32029;51.358;5.628;2023-08-01T00:28:18;99641.44;;;19.45;100.00
46303;BME280;32029;51.358;5.628;2023-08-01T00:30:45;99625.25;;;19.27;100.00
46303;BME280;32029;51.358;5.628;2023-08-01T00:33:11;99603.00;;;19.12;100.00
46303;BME280;32029;51.358;5.628;2023-08-01T00:35:39;99598.50;;;19.00;100.00
46303;BME280;32029;51.358;5.628;2023-08-01T00:38:06;99649.19;;;19.28;100.00
46303;BME280;32029;51.358;5.628;2023-08-01T00:40:33;99624.06;;;19.02;100.00
46303;BME280;32029;51.358;5.628;2023-08-01T00:43:00;99569.13;;;18.67;100.00
46303;BME280;32029;51.358;5.628;2023-08-01T00:45:27;99642.44;;;19.08;100.00
46303;BME280;32029;51.358;5.628;2023-08-01T00:47:56;99639.38;;;19.00;100.00
46303;BME280;32029;51.358;5.628;2023-08-01T00:50:23;99637.94;;;18.97;100.00
46303;BME280;32029;51.358;5.628;2023-08-01T00:52:51;99626.78;;;18.87;100.00
46303;BME280;32029;51.358;5.628;2023-08-01T00:55:19;99639.03;;;18.91;100.00
46303;BME280;32029;51.358;5.628;2023-08-01T00:57:45;99624.50;;;18.79;100.00
46303;BME280;32029;51.358;5.628;2023-08-01T01:00:13;99621.81;;;18.89;100.00
46303;BME280;32029;51.358;5.628;2023-08-01T01:02:40;99576.03;;;18.59;100.00
46303;BME280;32029;51.358;5.628;2023-08-01T01:05:07;99573.53;;;18.53;100.00
46303;BME280;32029;51.358;5.628;2023-08-01T01:07:34;99625.94;;;18.87;100.00
46303;BME280;32029;51.358;5.628;2023-08-01T01:10:01;99592.75;;;18.65;100.00
46303;BME280;32029;51.358;5.628;2023-08-01T01:12:28;99567.63;;;18.39;100.00
46303;BME280;32029;51.358;5.628;2023-08-01T01:14:54;99637.56;;;18.73;100.00
46303;BME280;32029;51.358;5.628;2023-08-01T01:17:21;99628.00;;;18.64;100.00
46303;BME280;32029;51.358;5.628;2023-08-01T01:19:48;99612.13;;;18.54;100.00
46303;BME280;32029;51.358;5.628;2023-08-01T01:22:15;99630.47;;;18.55;100.00
46303;BME280;32029;51.358;5.628;2023-08-01T01:24:43;99567.41;;;18.08;100.00
46303;BME280;32029;51.358;5.628;2023-08-01T01:27:11;99635.94;;;18.40;100.00
46303;BME280;32029;51.358;5.628;2023-08-01T01:29:40;99638.38;;;18.31;100.00
46303;BME280;32029;51.358;5.628;2023-08-01T01:32:08;99617.97;;;18.10;100.00
46303;BME280;32029;51.358;5.628;2023-08-01T01:34:36;99625.78;;;18.19;100.00
46303;BME280;32029;51.358;5.628;2023-08-01T01:37:02;99567.19;;;17.78;100.00
46303;BME280;32029;51.358;5.628;2023-08-01T01:39:29;99614.88;;;18.07;100.00
46303;BME280;32029;51.358;5.628;2023-08-01T01:41:56;99624.09;;;18.18;100.00
46303;BME280;32029;51.358;5.628;2023-08-01T01:44:23;99621.88;;;18.15;100.00
46303;BME280;32029;51.358;5.628;2023-08-01T01:46:50;99569.72;;;17.79;100.00
46303;BME280;32029;51.358;5.628;2023-08-01T01:49:16;99568.28;;;17.77;100.00
46303;BME280;32029;51.358;5.628;2023-08-01T01:51:43;99623.53;;;18.10;100.00
46303;BME280;32029;51.358;5.628;2023-08-01T01:54:10;99600.34;;;17.95;100.00
46303;BME280;32029;51.358;5.628;2023-08-01T01:56:36;99627.38;;;18.09;100.00
46303;BME280;32029;51.358;5.628;2023-08-01T01:59:03;99597.31;;;17.96;100.00
46303;BME280;32029;51.358;5.628;2023-08-01T02:01:30;99589.78;;;17.92;100.00
46303;BME280;32029;51.358;5.628;2023-08-01T02:03:56;99585.88;;;17.87;100.00
46303;BME280;32029;51.358;5.628;2023-08-01T02:06:24;99630.16;;;18.09;100.00
46303;BME280;32029;51.358;5.628;2023-08-01T02:08:51;99588.34;;;17.84;100.00
46303;BME280;32029;51.358;5.628;2023-08-01T02:11:17;99627.38;;;18.09;100.00
46303;BME280;32029;51.358;5.628;2023-08-01T02:13:44;99581.66;;;17.80;100.00
46303;BME280;32029;51.358;5.628;2023-08-01T02:16:11;99592.81;;;17.90;100.00
46303;BME280;32029;51.358;5.628;2023-08-01T02:18:37;99623.81;;;18.14;100.00
46303;BME280;32029;51.358;5.628;2023-08-01T02:21:04;99579.41;;;17.82;100.00
46303;BME280;32029;51.358;5.628;2023-08-01T02:23:31;99628.41;;;17.98;100.00
46303;BME280;32029;51.358;5.628;2023-08-01T02:25:59;99623.28;;;17.85;100.00
46303;BME280;32029;51.358;5.628;2023-08-01T02:28:26;99576.81;;;17.43;100.00
46303;BME280;32029;51.358;5.628;2023-08-01T02:30:52;99631.66;;;17.90;100.00
46303;BME280;32029;51.358;5.628;2023-08-01T02:33:19;99612.09;;;17.75;100.00
46303;BME280;32029;51.358;5.628;2023-08-01T02:35:46;99610.91;;;17.71;100.00
46303;BME280;32029;51.358;5.628;2023-08-01T02:38:13;99640.78;;;17.85;100.00
46303;BME280;32029;51.358;5.628;2023-08-01T02:40:40;99638.78;;;17.81;100.00
46303;BME280;32029;51.358;5.628;2023-08-01T02:43:07;99622.88;;;17.71;100.00
46303;BME280;32029;51.358;5.628;2023-08-01T02:45:33;99552.59;;;17.28;100.00
46303;BME280;32029;51.358;5.628;2023-08-01T02:48:01;99646.47;;;17.74;100.00
46303;BME280;32029;51.358;5.628;2023-08-01T02:50:28;99638.41;;;17.72;100.00
46303;BME280;32029;51.358;5.628;2023-08-01T02:52:55;99652.41;;;17.82;100.00
46303;BME280;32029;51.358;5.628;2023-08-01T02:55:21;99609.75;;;17.61;100.00
46303;BME280;32029;51.358;5.628;2023-08-01T02:57:48;99648.53;;;17.83;100.00
46303;BME280;32029;51.358;5.628;2023-08-01T03:00:15;99631.97;;;17.67;100.00
46303;BME280;32029;51.358;5.628;2023-08-01T03:02:43;99592.44;;;17.49;100.00
46303;BME280;32029;51.358;5.628;2023-08-01T03:05:10;99613.63;;;17.60;100.00
46303;BME280;32029;51.358;5.628;2023-08-01T03:07:37;99650.22;;;17.84;100.00
46303;BME280;32029;51.358;5.628;2023-08-01T03:10:04;99650.72;;;17.81;100.00
46303;BME280;32029;51.358;5.628;2023-08-01T03:12:30;99655.72;;;17.79;100.00
46303;BME280;32029;51.358;5.628;2023-08-01T03:14:58;99631.38;;;17.59;100.00
46303;BME280;32029;51.358;5.628;2023-08-01T03:17:25;99664.03;;;17.79;100.00
46303;BME280;32029;51.358;5.628;2023-08-01T03:19:51;99628.03;;;17.62;100.00
46303;BME280;32029;51.358;5.628;2023-08-01T03:22:18;99655.13;;;17.77;100.00
46303;BME280;32029;51.358;5.628;2023-08-01T03:24:45;99627.78;;;17.64;100.00
46303;BME280;32029;51.358;5.628;2023-08-01T03:27:11;99634.69;;;17.61;100.00
46303;BME280;32029;51.358;5.628;2023-08-01T03:29:38;99656.56;;;17.80;100.00
46303;BME280;32029;51.358;5.628;2023-08-01T03:32:05;99650.69;;;17.76;100.00
46303;BME280;32029;51.358;5.628;2023-08-01T03:34:32;99602.38;;;17.45;100.00
46303;BME280;32029;51.358;5.628;2023-08-01T03:36:59;99628.88;;;17.63;100.00
46303;BME280;32029;51.358;5.628;2023-08-01T03:39:26;99650.88;;;17.70;100.00
46303;BME280;32029;51.358;5.628;2023-08-01T03:41:52;99650.94;;;17.75;100.00
46303;BME280;32029;51.358;5.628;2023-08-01T03:44:19;99639.22;;;17.68;100.00
46303;BME280;32029;51.358;5.628;2023-08-01T03:46:46;99662.03;;;17.75;100.00
46303;BME280;32029;51.358;5.628;2023-08-01T03:49:13;99628.00;;;17.57;100.00
46303;BME280;32029;51.358;5.628;2023-08-01T03:51:40;99647.22;;;17.64;100.00
46303;BME280;32029;51.358;5.628;2023-08-01T03:54:08;99644.31;;;17.54;100.00
46303;BME280;32029;51.358;5.628;2023-08-01T03:56:36;99614.56;;;17.44;100.00
46303;BME280;32029;51.358;5.628;2023-08-01T03:59:04;99606.13;;;17.34;100.00
46303;BME280;32029;51.358;5.628;2023-08-01T04:01:31;99656.06;;;17.61;100.00
46303;BME280;32029;51.358;5.628;2023-08-01T04:03:58;99656.38;;;17.64;100.00
46303;BME280;32029;51.358;5.628;2023-08-01T04:06:24;99657.34;;;17.75;100.00
46303;BME280;32029;51.358;5.628;2023-08-01T04:08:51;99630.25;;;17.60;100.00
46303;BME280;32029;51.358;5.628;2023-08-01T04:11:18;99657.25;;;17.70;100.00
46303;BME280;32029;51.358;5.628;2023-08-01T04:13:45;99654.22;;;17.72;100.00
46303;BME280;32029;51.358;5.628;2023-08-01T04:16:12;99633.56;;;17.57;100.00
46303;BME280;32029;51.358;5.628;2023-08-01T04:18:38;99664.34;;;17.83;100.00
46303;BME280;32029;51.358;5.628;2023-08-01T04:21:06;99664.13;;;17.90;100.00
46303;BME280;32029;51.358;5.628;2023-08-01T04:23:32;99617.56;;;17.70;100.00
46303;BME280;32029;51.358;5.628;2023-08-01T04:25:59;99654.75;;;17.96;100.00
46303;BME280;32029;51.358;5.628;2023-08-01T04:28:27;99637.38;;;17.78;100.00
46303;BME280;32029;51.358;5.628;2023-08-01T04:30:54;99650.56;;;17.93;100.00
46303;BME280;32029;51.358;5.628;2023-08-01T04:33:20;99656.16;;;17.98;100.00
46303;BME280;32029;51.358;5.628;2023-08-01T04:35:47;99648.38;;;17.95;100.00
46303;BME280;32029;51.358;5.628;2023-08-01T04:38:15;99617.63;;;17.75;100.00
46303;BME280;32029;51.358;5.628;2023-08-01T04:40:42;99637.44;;;17.83;100.00
46303;BME280;32029;51.358;5.628;2023-08-01T04:43:10;99625.44;;;17.78;100.00
46303;BME280;32029;51.358;5.628;2023-08-01T04:45:36;99644.97;;;17.88;100.00
46303;BME280;32029;51.358;5.628;2023-08-01T04:48:03;99625.50;;;17.83;100.00
46303;BME280;32029;51.358;5.628;2023-08-01T04:50:30;99644.44;;;17.91;100.00
46303;BME280;32029;51.358;5.628;2023-08-01T04:52:56;99652.50;;;17.93;100.00
46303;BME280;32029;51.358;5.628;2023-08-01T04:55:23;99638.28;;;17.84;100.00
46303;BME280;32029;51.358;5.628;2023-08-01T04:57:50;99610.88;;;17.66;100.00
46303;BME280;32029;51.358;5.628;2023-08-01T05:00:17;99669.50;;;18.01;100.00
46303;BME280;32029;51.358;5.628;2023-08-01T05:02:43;99663.59;;;17.93;100.00
46303;BME280;32029;51.358;5.628;2023-08-01T05:05:10;99671.41;;;17.96;100.00
46303;BME280;32029;51.358;5.628;2023-08-01T05:07:37;99671.72;;;17.99;100.00
46303;BME280;32029;51.358;5.628;2023-08-01T05:10:03;99671.19;;;18.02;100.00
46303;BME280;32029;51.358;5.628;2023-08-01T05:12:30;99668.97;;;18.04;100.00
46303;BME280;32029;51.358;5.628;2023-08-01T05:14:57;99646.63;;;17.89;100.00
46303;BME280;32029;51.358;5.628;2023-08-01T05:17:23;99621.00;;;17.77;100.00
46303;BME280;32029;51.358;5.628;2023-08-01T05:19:50;99683.25;;;18.18;100.00
46303;BME280;32029;51.358;5.628;2023-08-01T05:22:17;99652.31;;;18.04;100.00
46303;BME280;32029;51.358;5.628;2023-08-01T05:24:43;99671.53;;;18.11;100.00
46303;BME280;32029;51.358;5.628;2023-08-01T05:27:10;99646.50;;;18.06;100.00
46303;BME280;32029;51.358;5.628;2023-08-01T05:29:37;99670.56;;;18.27;100.00
46303;BME280;32029;51.358;5.628;2023-08-01T05:32:04;99652.13;;;18.16;100.00
46303;BME280;32029;51.358;5.628;2023-08-01T05:34:30;99647.13;;;18.13;100.00
46303;BME280;32029;51.358;5.628;2023-08-01T05:36:57;99662.19;;;18.22;100.00
46303;BME280;32029;51.358;5.628;2023-08-01T05:39:25;99690.63;;;18.40;100.00
46303;BME280;32029;51.358;5.628;2023-08-01T05:41:51;99692.59;;;18.44;100.00
46303;BME280;32029;51.358;5.628;2023-08-01T05:44:19;99688.75;;;18.45;100.00
46303;BME280;32029;51.358;5.628;2023-08-01T05:46:46;99686.75;;;18.41;100.00
46303;BME280;32029;51.358;5.628;2023-08-01T05:49:13;99691.78;;;18.44;100.00
46303;BME280;32029;51.358;5.628;2023-08-01T05:51:39;99688.78;;;18.50;100.00
46303;BME280;32029;51.358;5.628;2023-08-01T05:54:06;99689.34;;;18.52;100.00
46303;BME280;32029;51.358;5.628;2023-08-01T05:56:33;99707.22;;;18.67;100.00
46303;BME280;32029;51.358;5.628;2023-08-01T05:58:59;99688.28;;;18.58;100.00
46303;BME280;32029;51.358;5.628;2023-08-01T06:01:26;99691.88;;;18.59;100.00
46303;BME280;32029;51.358;5.628;2023-08-01T06:03:53;99699.81;;;18.77;100.00
46303;BME280;32029;51.358;5.628;2023-08-01T06:06:19;99690.88;;;18.70;100.00
46303;BME280;32029;51.358;5.628;2023-08-01T06:08:46;99678.06;;;18.69;100.00
46303;BME280;32029;51.358;5.628;2023-08-01T06:11:13;99674.81;;;18.77;100.00
46303;BME280;32029;51.358;5.628;2023-08-01T06:13:39;99679.84;;;18.80;100.00
46303;BME280;32029;51.358;5.628;2023-08-01T06:16:06;99684.59;;;18.85;100.00
46303;BME280;32029;51.358;5.628;2023-08-01T06:18:33;99706.59;;;18.97;100.00
46303;BME280;32029;51.358;5.628;2023-08-01T06:21:01;99698.59;;;19.05;100.00
46303;BME280;32029;51.358;5.628;2023-08-01T06:23:29;99690.81;;;19.07;100.00
46303;BME280;32029;51.358;5.628;2023-08-01T06:25:57;99696.41;;;19.13;100.00
46303;BME280;32029;51.358;5.628;2023-08-01T06:28:24;99685.28;;;19.13;100.00
46303;BME280;32029;51.358;5.628;2023-08-01T06:30:51;99664.94;;;19.07;100.00
46303;BME280;32029;51.358;5.628;2023-08-01T06:33:17;99709.31;;;19.44;100.00
46303;BME280;32029;51.358;5.628;2023-08-01T06:35:45;99699.31;;;19.43;100.00
46303;BME280;32029;51.358;5.628;2023-08-01T06:38:12;99699.31;;;19.43;100.00
46303;BME280;32029;51.358;5.628;2023-08-01T06:40:38;99715.78;;;19.60;100.00
46303;BME280;32029;51.358;5.628;2023-08-01T06:43:05;99687.88;;;19.40;100.00
46303;BME280;32029;51.358;5.628;2023-08-01T06:45:32;99705.16;;;19.47;100.00
46303;BME280;32029;51.358;5.628;2023-08-01T06:47:58;99676.13;;;19.22;100.00
46303;BME280;32029;51.358;5.628;2023-08-01T06:50:25;99697.06;;;19.35;100.00
46303;BME280;32029;51.358;5.628;2023-08-01T06:52:52;99676.41;;;19.16;100.00
46303;BME280;32029;51.358;5.628;2023-08-01T06:55:18;99696.50;;;19.38;100.00
46303;BME280;32029;51.358;5.628;2023-08-01T06:57:45;99733.84;;;19.57;100.00
46303;BME280;32029;51.358;5.628;2023-08-01T07:00:13;99720.53;;;19.65;100.00
46303;BME280;32029;51.358;5.628;2023-08-01T07:02:39;99735.06;;;19.87;100.00
46303;BME280;32029;51.358;5.628;2023-08-01T07:05:06;99707.78;;;19.79;100.00
46303;BME280;32029;51.358;5.628;2023-08-01T07:07:34;99724.53;;;19.94;100.00
46303;BME280;32029;51.358;5.628;2023-08-01T07:10:01;99694.41;;;19.81;100.00
46303;BME280;32029;51.358;5.628;2023-08-01T07:12:29;99697.47;;;19.79;100.00
46303;BME280;32029;51.358;5.628;2023-08-01T07:14:55;99695.25;;;19.76;100.00
46303;BME280;32029;51.358;5.628;2023-08-01T07:17:23;99718.38;;;19.92;100.00
46303;BME280;32029;51.358;5.628;2023-08-01T07:19:51;99709.19;;;19.87;100.00
46303;BME280;32029;51.358;5.628;2023-08-01T07:22:18;99709.47;;;20.00;100.00
46303;BME280;32029;51.358;5.628;2023-08-01T07:24:46;99742.34;;;20.08;100.00
46303;BME280;32029;51.358;5.628;2023-08-01T07:27:14;99742.34;;;20.03;100.00
46303;BME280;32029;51.358;5.628;2023-08-01T07:29:41;99716.13;;;19.79;100.00
46303;BME280;32029;51.358;5.628;2023-08-01T07:32:07;99751.22;;;19.95;100.00
46303;BME280;32029;51.358;5.628;2023-08-01T07:34:34;99730.88;;;19.79;100.00
46303;BME280;32029;51.358;5.628;2023-08-01T07:37:01;99733.94;;;19.78;100.00
46303;BME280;32029;51.358;5.628;2023-08-01T07:39:28;99735.63;;;19.79;100.00
46303;BME280;32029;51.358;5.628;2023-08-01T07:41:56;99753.47;;;19.93;100.00
46303;BME280;32029;51.358;5.628;2023-08-01T07:44:23;99738.69;;;19.88;100.00
46303;BME280;32029;51.358;5.628;2023-08-01T07:46:51;99755.72;;;20.01;100.00
46303;BME280;32029;51.358;5.628;2023-08-01T07:49:18;99764.34;;;20.10;100.00
46303;BME280;32029;51.358;5.628;2023-08-01T07:51:46;99756.84;;;20.16;100.00
46303;BME280;32029;51.358;5.628;2023-08-01T07:54:13;99762.13;;;20.12;100.00
46303;BME280;32029;51.358;5.628;2023-08-01T07:56:41;99765.19;;;20.11;100.00
46303;BME280;32029;51.358;5.628;2023-08-01T07:59:11;99762.41;;;20.05;100.00
46303;BME280;32029;51.358;5.628;2023-08-01T08:01:38;99742.34;;;19.93;100.00
46303;BME280;32029;51.358;5.628;2023-08-01T08:04:06;99745.41;;;20.02;100.00
46303;BME280;32029;51.358;5.628;2023-08-01T08:06:34;99770.78;;;20.26;100.00
46303;BME280;32029;51.358;5.628;2023-08-01T08:09:02;99704.47;;;19.92;100.00
46303;BME280;32029;51.358;5.628;2023-08-01T08:11:30;99750.47;;;20.25;100.00
46303;BME280;32029;51.358;5.628;2023-08-01T08:13:57;99758.25;;;20.44;100.00
46303;BME280;32029;51.358;5.628;2023-08-01T08:16:23;99763.59;;;20.66;100.00
46303;BME280;32029;51.358;5.628;2023-08-01T08:18:51;99682.47;;;20.16;100.00
46303;BME280;32029;51.358;5.628;2023-08-01T08:21:19;99754.09;;;20.62;99.45
46303;BME280;32029;51.358;5.628;2023-08-01T08:23:46;99723.97;;;20.43;99.69
46303;BME280;32029;51.358;5.628;2023-08-01T08:26:13;99717.00;;;20.36;99.64
46303;BME280;32029;51.358;5.628;2023-08-01T08:28:41;99767.19;;;20.66;100.00
46303;BME280;32029;51.358;5.628;2023-08-01T08:31:09;99739.63;;;20.54;100.00
46303;BME280;32029;51.358;5.628;2023-08-01T08:33:36;99773.88;;;20.80;98.32
46303;BME280;32029;51.358;5.628;2023-08-01T08:36:03;99749.06;;;20.79;100.00
46303;BME280;32029;51.358;5.628;2023-08-01T08:38:31;99722.31;;;20.78;99.43
46303;BME280;32029;51.358;5.628;2023-08-01T08:41:14;99745.72;;;20.92;98.18
46303;BME280;32029;51.358;5.628;2023-08-01T08:43:48;99738.47;;;20.91;97.61
46303;BME280;32029;51.358;5.628;2023-08-01T08:46:16;99752.38;;;21.01;98.21
46303;BME280;32029;51.358;5.628;2023-08-01T08:48:45;99757.38;;;21.15;98.60
46303;BME280;32029;51.358;5.628;2023-08-01T08:51:13;99724.19;;;21.08;97.35
46303;BME280;32029;51.358;5.628;2023-08-01T08:53:40;99759.25;;;21.45;96.46
46303;BME280;32029;51.358;5.628;2023-08-01T08:56:08;99782.94;;;21.58;93.72
46303;BME280;32029;51.358;5.628;2023-08-01T08:58:37;99769.47;;;21.65;93.59
46303;BME280;32029;51.358;5.628;2023-08-01T09:01:09;99748.91;;;21.50;93.83
46303;BME280;32029;51.358;5.628;2023-08-01T09:03:37;99770.09;;;21.62;93.82
46303;BME280;32029;51.358;5.628;2023-08-01T09:06:09;99741.63;;;21.55;93.72
46303;BME280;32029;51.358;5.628;2023-08-01T09:08:39;99780.63;;;21.75;92.96
46303;BME280;32029;51.358;5.628;2023-08-01T09:11:08;99776.66;;;21.86;93.32
46303;BME280;32029;51.358;5.628;2023-08-01T09:13:35;99777.19;;;21.88;93.56
46303;BME280;32029;51.358;5.628;2023-08-01T09:16:04;99785.22;;;22.05;93.23
46303;BME280;32029;51.358;5.628;2023-08-01T09:18:34;99766.44;;;22.11;92.07
46303;BME280;32029;51.358;5.628;2023-08-01T09:21:00;99762.81;;;22.10;90.40
46303;BME280;32029;51.358;5.628;2023-08-01T09:23:30;99760.88;;;22.16;91.11
46303;BME280;32029;51.358;5.628;2023-08-01T09:25:58;99782.81;;;22.33;91.13
46303;BME280;32029;51.358;5.628;2023-08-01T09:28:26;99787.50;;;22.42;90.23
46303;BME280;32029;51.358;5.628;2023-08-01T09:30:55;99780.91;;;22.28;89.07
46303;BME280;32029;51.358;5.628;2023-08-01T09:33:23;99796.72;;;22.43;89.13
46303;BME280;32029;51.358;5.628;2023-08-01T09:35:52;99796.97;;;22.46;88.43
46303;BME280;32029;51.358;5.628;2023-08-01T09:38:19;99773.63;;;22.27;88.10
46303;BME280;32029;51.358;5.628;2023-08-01T09:40:47;99803.16;;;22.43;87.98
46303;BME280;32029;51.358;5.628;2023-08-01T09:43:14;99760.31;;;22.14;87.80
46303;BME280;32029;51.358;5.628;2023-08-01T09:45:53;99760.31;;;22.14;89.27
46303;BME280;32029;51.358;5.628;2023-08-01T09:48:30;99761.41;;;22.13;87.86
46303;BME280;32029;51.358;5.628;2023-08-01T09:51:14;99779.00;;;22.18;89.77
46303;BME280;32029;51.358;5.628;2023-08-01T09:53:50;99790.75;;;22.20;87.64
46303;BME280;32029;51.358;5.628;2023-08-01T09:56:25;99801.34;;;22.23;88.88
46303;BME280;32029;51.358;5.628;2023-08-01T09:58:54;99796.53;;;22.29;87.10
46303;BME280;32029;51.358;5.628;2023-08-01T10:01:24;99801.56;;;22.27;86.70
46303;BME280;32029;51.358;5.628;2023-08-01T10:03:53;99789.66;;;22.16;87.92
46303;BME280;32029;51.358;5.628;2023-08-01T10:06:28;99788.22;;;22.19;87.70
46303;BME280;32029;51.358;5.628;2023-08-01T10:08:59;99799.34;;;22.29;86.51
46303;BME280;32029;51.358;5.628;2023-08-01T10:11:26;99793.78;;;22.24;87.71
46303;BME280;32029;51.358;5.628;2023-08-01T10:13:53;99763.41;;;22.07;87.42
46303;BME280;32029;51.358;5.628;2023-08-01T10:16:21;99805.75;;;22.30;88.04
46303;BME280;32029;51.358;5.628;2023-08-01T10:18:50;99815.28;;;22.29;85.63
46303;BME280;32029;51.358;5.628;2023-08-01T10:21:18;99815.56;;;22.22;84.98
46303;BME280;32029;51.358;5.628;2023-08-01T10:23:48;99817.84;;;22.20;85.17
46303;BME280;32029;51.358;5.628;2023-08-01T10:26:16;99796.09;;;22.07;85.77
46303;BME280;32029;51.358;5.628;2023-08-01T10:28:52;99788.50;;;22.17;85.52
46303;BME280;32029;51.358;5.628;2023-08-01T10:31:20;99829.50;;;22.32;85.45
46303;BME280;32029;51.358;5.628;2023-08-01T10:33:49;99835.34;;;22.31;86.29
46303;BME280;32029;51.358;5.628;2023-08-01T10:36:20;99829.03;;;22.20;86.16
46303;BME280;32029;51.358;5.628;2023-08-01T10:38:52;99829.28;;;22.23;86.62
46303;BME280;32029;51.358;5.628;2023-08-01T10:41:33;99806.13;;;22.13;87.45
46303;BME280;32029;51.358;5.628;2023-08-01T10:44:10;99829.41;;;22.42;86.16
46303;BME280;32029;51.358;5.628;2023-08-01T10:46:58;99828.63;;;22.37;86.01
46303;BME280;32029;51.358;5.628;2023-08-01T10:49:42;99833.03;;;22.43;84.35
46303;BME280;32029;51.358;5.628;2023-08-01T10:54:46;99822.78;;;22.33;83.46
46303;BME280;32029;51.358;5.628;2023-08-01T10:57:17;99814.75;;;22.11;83.19
46303;BME280;32029;51.358;5.628;2023-08-01T10:59:45;99812.56;;;22.08;83.64
46303;BME280;32029;51.358;5.628;2023-08-01T11:02:20;99814.56;;;21.97;83.99
46303;BME280;32029;51.358;5.628;2023-08-01T11:04:57;99847.19;;;22.17;82.80
46303;BME280;32029;51.358;5.628;2023-08-01T11:07:24;99815.16;;;21.94;84.21
46303;BME280;32029;51.358;5.628;2023-08-01T11:12:37;99848.97;;;22.47;84.33
46303;BME280;32029;51.358;5.628;2023-08-01T11:15:07;99849.97;;;22.62;86.52
46303;BME280;32029;51.358;5.628;2023-08-01T11:17:39;99859.88;;;22.83;85.39
46303;BME280;32029;51.358;5.628;2023-08-01T11:20:08;99804.38;;;22.66;83.60
46303;BME280;32029;51.358;5.628;2023-08-01T11:22:36;99781.13;;;22.71;82.72
46303;BME280;32029;51.358;5.628;2023-08-01T11:25:04;99733.88;;;22.40;80.28
46303;BME280;32029;51.358;5.628;2023-08-01T11:27:33;99769.00;;;22.52;81.53
46303;BME280;32029;51.358;5.628;2023-08-01T11:30:01;99827.72;;;22.81;80.80
46303;BME280;32029;51.358;5.628;2023-08-01T11:32:36;99805.59;;;22.84;79.63
46303;BME280;32029;51.358;5.628;2023-08-01T11:35:05;99841.81;;;23.05;78.11
46303;BME280;32029;51.358;5.628;2023-08-01T11:37:33;99746.13;;;22.44;77.76
46303;BME280;32029;51.358;5.628;2023-08-01T11:40:01;99828.44;;;23.02;78.55
46303;BME280;32029;51.358;5.628;2023-08-01T11:42:32;99714.06;;;22.37;77.75
46303;BME280;32029;51.358;5.628;2023-08-01T11:45:11;99750.78;;;22.54;77.27
46303;BME280;32029;51.358;5.628;2023-08-01T11:47:46;99773.91;;;22.65;77.43
46303;BME280;32029;51.358;5.628;2023-08-01T11:50:20;99777.13;;;22.82;79.16
46303;BME280;32029;51.358;5.628;2023-08-01T11:52:49;99873.63;;;23.43;78.75
46303;BME280;32029;51.358;5.628;2023-08-01T11:55:26;99721.28;;;22.72;77.90
46303;BME280;32029;51.358;5.628;2023-08-01T11:57:58;99819.78;;;23.27;77.49
46303;BME280;32029;51.358;5.628;2023-08-01T12:00:27;99687.09;;;22.51;74.01
46303;BME280;32029;51.358;5.628;2023-08-01T12:03:08;99865.81;;;23.69;74.45
46303;BME280;32029;51.358;5.628;2023-08-01T12:05:43;99666.09;;;22.54;73.37
46303;BME280;32029;51.358;5.628;2023-08-01T12:08:14;99811.03;;;23.58;72.63
46303;BME280;32029;51.358;5.628;2023-08-01T12:10:44;99787.09;;;23.46;73.27
46303;BME280;32029;51.358;5.628;2023-08-01T12:13:23;99850.44;;;23.66;73.37
46303;BME280;32029;51.358;5.628;2023-08-01T12:15:53;99770.38;;;23.17;71.47
46303;BME280;32029;51.358;5.628;2023-08-01T12:18:25;99692.13;;;22.49;73.06
46303;BME280;32029;51.358;5.628;2023-08-01T12:20:54;99882.34;;;23.41;72.44
46303;BME280;32029;51.358;5.628;2023-08-01T12:23:21;99880.47;;;23.56;73.18
46303;BME280;32029;51.358;5.628;2023-08-01T12:25:49;99882.47;;;23.55;72.80
46303;BME280;32029;51.358;5.628;2023-08-01T12:28:17;99847.94;;;23.36;72.80
46303;BME280;32029;51.358;5.628;2023-08-01T12:30:45;99856.25;;;23.46;74.16
46303;BME280;32029;51.358;5.628;2023-08-01T12:33:12;99828.84;;;23.43;72.02
46303;BME280;32029;51.358;5.628;2023-08-01T12:35:41;99856.16;;;23.56;71.57
46303;BME280;32029;51.358;5.628;2023-08-01T12:38:09;99882.09;;;23.67;72.74
46303;BME280;32029;51.358;5.628;2023-08-01T12:40:37;99880.44;;;23.61;72.25
46303;BME280;32029;51.358;5.628;2023-08-01T12:43:04;99876.59;;;23.52;73.53
46303;BME280;32029;51.358;5.628;2023-08-01T12:45:32;99887.81;;;23.52;75.00
46303;BME280;32029;51.358;5.628;2023-08-01T12:48:00;99863.00;;;23.45;74.84
46303;BME280;32029;51.358;5.628;2023-08-01T12:50:28;99879.97;;;23.54;72.16
46303;BME280;32029;51.358;5.628;2023-08-01T12:52:56;99862.78;;;23.36;72.56
46303;BME280;32029;51.358;5.628;2023-08-01T12:55:24;99877.22;;;23.48;72.33
46303;BME280;32029;51.358;5.628;2023-08-01T12:57:51;99888.06;;;23.55;71.76
46303;BME280;32029;51.358;5.628;2023-08-01T13:00:19;99839.53;;;23.41;71.67
46303;BME280;32029;51.358;5.628;2023-08-01T13:02:47;99871.31;;;23.50;72.05